Aviation Digital Data Service (ADDS)

Output produced by METARs form (0128 UTC 22 September 2018)
found at http://aviationweather.gov/metar/data/
 
METAR text: KRNT 220053Z 14006KT 10SM BKN110 21/11 A2984 RMK AO2 SLP111 T02110111
Conditions at: KRNT (RENTON , WA, US) observed 0053 UTC 22 September 2018
Temperature: 21.1°C (70°F)
Dewpoint: 11.1°C (52°F) [RH = 53%]
Pressure (altimeter): 29.84 inches Hg (1010.6 mb)
[Sea-level pressure: 1011.1 mb]
Winds: from the SE (140 degrees) at 7 MPH (6 knots; 3.1 m/s)
Visibility: 10 or more miles (16+ km)
Ceiling: 11000 feet AGL
Clouds: broken clouds at 11000 feet AGL
Weather: no significant weather observed at this time

METAR text: KRNT 212353Z 18005KT 10SM BKN110 22/11 A2987 RMK AO2 SLP119 T02170106 10233 20194 56013
Conditions at: KRNT (RENTON , WA, US) observed 2353 UTC 21 September 2018
Temperature: 21.7°C (71°F)
Dewpoint: 10.6°C (51°F) [RH = 49%]
Pressure (altimeter): 29.87 inches Hg (1011.6 mb)
[Sea-level pressure: 1011.9 mb]
Winds: from the S (180 degrees) at 6 MPH (5 knots; 2.6 m/s)
Visibility: 10 or more miles (16+ km)
Ceiling: 11000 feet AGL
Clouds: broken clouds at 11000 feet AGL
Weather: no significant weather observed at this time